sensor_id;sensor_type;location;lat;lon;timestamp;temperature;humidity
43987;DHT22;29650;47.378;8.300;2023-05-07T00:00:46;15.00;99.90
43987;DHT22;29650;47.378;8.300;2023-05-07T00:03:12;14.90;99.90
43987;DHT22;29650;47.378;8.300;2023-05-07T00:05:40;14.80;99.90
43987;DHT22;29650;47.378;8.300;2023-05-07T00:08:07;14.70;99.90
43987;DHT22;29650;47.378;8.300;2023-05-07T00:10:35;14.70;99.90
43987;DHT22;29650;47.378;8.300;2023-05-07T00:13:02;14.80;99.90
43987;DHT22;29650;47.378;8.300;2023-05-07T00:15:29;14.80;99.90
43987;DHT22;29650;47.378;8.300;2023-05-07T00:17:56;14.80;99.90
43987;DHT22;29650;47.378;8.300;2023-05-07T00:20:25;14.70;99.90
43987;DHT22;29650;47.378;8.300;2023-05-07T00:22:52;14.70;99.90
43987;DHT22;29650;47.378;8.300;2023-05-07T00:25:19;14.60;99.90
43987;DHT22;29650;47.378;8.300;2023-05-07T00:27:47;14.70;99.90
43987;DHT22;29650;47.378;8.300;2023-05-07T00:30:14;14.60;99.90
43987;DHT22;29650;47.378;8.300;2023-05-07T00:32:41;14.70;99.90
43987;DHT22;29650;47.378;8.300;2023-05-07T00:35:10;14.70;99.90
43987;DHT22;29650;47.378;8.300;2023-05-07T00:37:37;14.60;99.90
43987;DHT22;29650;47.378;8.300;2023-05-07T00:40:05;14.50;99.90
43987;DHT22;29650;47.378;8.300;2023-05-07T00:42:33;14.60;99.90
43987;DHT22;29650;47.378;8.300;2023-05-07T00:45:01;14.70;99.90
43987;DHT22;29650;47.378;8.300;2023-05-07T00:47:28;14.70;99.90
43987;DHT22;29650;47.378;8.300;2023-05-07T00:49:56;14.40;99.90
43987;DHT22;29650;47.378;8.300;2023-05-07T00:52:25;14.40;99.90
43987;DHT22;29650;47.378;8.300;2023-05-07T00:54:53;14.40;99.90
43987;DHT22;29650;47.378;8.300;2023-05-07T00:57:21;14.40;99.90
43987;DHT22;29650;47.378;8.300;2023-05-07T00:59:48;14.30;99.90
43987;DHT22;29650;47.378;8.300;2023-05-07T01:02:16;14.30;99.90
43987;DHT22;29650;47.378;8.300;2023-05-07T01:04:43;14.30;99.90
43987;DHT22;29650;47.378;8.300;2023-05-07T01:07:11;14.30;99.90
43987;DHT22;29650;47.378;8.300;2023-05-07T01:09:38;14.30;99.90
43987;DHT22;29650;47.378;8.300;2023-05-07T01:12:06;14.30;99.90
43987;DHT22;29650;47.378;8.300;2023-05-07T01:14:33;14.40;99.90
43987;DHT22;29650;47.378;8.300;2023-05-07T01:17:00;14.30;99.90
43987;DHT22;29650;47.378;8.300;2023-05-07T01:19:29;14.40;99.90
43987;DHT22;29650;47.378;8.300;2023-05-07T01:22:02;14.50;99.90
43987;DHT22;29650;47.378;8.300;2023-05-07T01:24:31;14.10;99.90
43987;DHT22;29650;47.378;8.300;2023-05-07T01:26:59;13.80;99.90
43987;DHT22;29650;47.378;8.300;2023-05-07T01:29:27;13.70;99.90
43987;DHT22;29650;47.378;8.300;2023-05-07T01:31:55;13.70;99.90
43987;DHT22;29650;47.378;8.300;2023-05-07T01:34:23;13.90;99.90
43987;DHT22;29650;47.378;8.300;2023-05-07T01:36:52;14.00;99.90
43987;DHT22;29650;47.378;8.300;2023-05-07T01:39:19;13.90;99.90
43987;DHT22;29650;47.378;8.300;2023-05-07T01:41:47;14.00;99.90
43987;DHT22;29650;47.378;8.300;2023-05-07T01:44:14;13.90;99.90
43987;DHT22;29650;47.378;8.300;2023-05-07T01:46:42;13.90;99.90
43987;DHT22;29650;47.378;8.300;2023-05-07T01:49:09;13.90;99.90
43987;DHT22;29650;47.378;8.300;2023-05-07T01:51:36;13.80;99.90
43987;DHT22;29650;47.378;8.300;2023-05-07T01:54:03;13.90;99.90
43987;DHT22;29650;47.378;8.300;2023-05-07T01:56:31;13.90;99.90
43987;DHT22;29650;47.378;8.300;2023-05-07T01:58:59;14.00;99.90
43987;DHT22;29650;47.378;8.300;2023-05-07T02:01:27;13.90;99.90
43987;DHT22;29650;47.378;8.300;2023-05-07T02:03:54;13.70;99.90
43987;DHT22;29650;47.378;8.300;2023-05-07T02:06:21;13.70;99.90
43987;DHT22;29650;47.378;8.300;2023-05-07T02:08:48;13.60;99.90
43987;DHT22;29650;47.378;8.300;2023-05-07T02:11:15;13.60;99.90
43987;DHT22;29650;47.378;8.300;2023-05-07T02:13:42;13.50;99.90
43987;DHT22;29650;47.378;8.300;2023-05-07T02:16:10;13.50;99.90
43987;DHT22;29650;47.378;8.300;2023-05-07T02:18:39;13.60;99.90
43987;DHT22;29650;47.378;8.300;2023-05-07T02:21:06;13.60;99.90
43987;DHT22;29650;47.378;8.300;2023-05-07T02:23:33;13.50;99.90
43987;DHT22;29650;47.378;8.300;2023-05-07T02:25:59;13.50;99.90
43987;DHT22;29650;47.378;8.300;2023-05-07T02:28:26;13.60;99.90
43987;DHT22;29650;47.378;8.300;2023-05-07T02:30:53;13.60;99.90
43987;DHT22;29650;47.378;8.300;2023-05-07T02:33:21;13.50;99.90
43987;DHT22;29650;47.378;8.300;2023-05-07T02:35:48;13.50;99.90
43987;DHT22;29650;47.378;8.300;2023-05-07T02:38:17;13.50;99.90
43987;DHT22;29650;47.378;8.300;2023-05-07T02:40:44;13.50;99.90
43987;DHT22;29650;47.378;8.300;2023-05-07T02:43:11;13.50;99.90
43987;DHT22;29650;47.378;8.300;2023-05-07T02:45:38;13.40;99.90
43987;DHT22;29650;47.378;8.300;2023-05-07T02:48:05;13.50;99.90
43987;DHT22;29650;47.378;8.300;2023-05-07T02:50:34;13.50;99.90
43987;DHT22;29650;47.378;8.300;2023-05-07T02:53:00;13.50;99.90
43987;DHT22;29650;47.378;8.300;2023-05-07T02:55:27;13.40;99.90
43987;DHT22;29650;47.378;8.300;2023-05-07T02:57:55;13.50;99.90
43987;DHT22;29650;47.378;8.300;2023-05-07T03:00:22;13.50;99.90
43987;DHT22;29650;47.378;8.300;2023-05-07T03:02:49;13.20;99.90
43987;DHT22;29650;47.378;8.300;2023-05-07T03:05:16;13.20;99.90
43987;DHT22;29650;47.378;8.300;2023-05-07T03:07:44;13.30;99.90
43987;DHT22;29650;47.378;8.300;2023-05-07T03:10:12;13.30;99.90
43987;DHT22;29650;47.378;8.300;2023-05-07T03:12:40;13.30;99.90
43987;DHT22;29650;47.378;8.300;2023-05-07T03:15:08;13.30;99.90
43987;DHT22;29650;47.378;8.300;2023-05-07T03:17:36;13.20;99.90
43987;DHT22;29650;47.378;8.300;2023-05-07T03:20:03;13.10;99.90
43987;DHT22;29650;47.378;8.300;2023-05-07T03:22:30;13.20;99.90
43987;DHT22;29650;47.378;8.300;2023-05-07T03:24:58;13.00;99.90
43987;DHT22;29650;47.378;8.300;2023-05-07T03:27:25;13.00;99.90
43987;DHT22;29650;47.378;8.300;2023-05-07T03:29:52;13.10;99.90
43987;DHT22;29650;47.378;8.300;2023-05-07T03:32:19;12.90;99.90
43987;DHT22;29650;47.378;8.300;2023-05-07T03:34:46;12.80;99.90
43987;DHT22;29650;47.378;8.300;2023-05-07T03:37:13;12.70;99.90
43987;DHT22;29650;47.378;8.300;2023-05-07T03:39:40;12.90;99.90
43987;DHT22;29650;47.378;8.300;2023-05-07T03:42:08;12.80;99.90
43987;DHT22;29650;47.378;8.300;2023-05-07T03:44:35;12.80;99.90
43987;DHT22;29650;47.378;8.300;2023-05-07T03:47:02;12.80;99.90
43987;DHT22;29650;47.378;8.300;2023-05-07T03:49:29;12.80;99.90
43987;DHT22;29650;47.378;8.300;2023-05-07T03:51:56;12.70;99.90
43987;DHT22;29650;47.378;8.300;2023-05-07T03:54:23;12.70;99.90
43987;DHT22;29650;47.378;8.300;2023-05-07T03:56:50;12.70;99.90
43987;DHT22;29650;47.378;8.300;2023-05-07T03:59:18;12.80;99.90
43987;DHT22;29650;47.378;8.300;2023-05-07T04:01:45;12.80;99.90
43987;DHT22;29650;47.378;8.300;2023-05-07T04:04:12;12.90;99.90
43987;DHT22;29650;47.378;8.300;2023-05-07T04:06:39;12.80;99.90
43987;DHT22;29650;47.378;8.300;2023-05-07T04:09:06;12.90;99.90
43987;DHT22;29650;47.378;8.300;2023-05-07T04:11:34;12.80;99.90
43987;DHT22;29650;47.378;8.300;2023-05-07T04:14:02;13.00;99.90
43987;DHT22;29650;47.378;8.300;2023-05-07T04:16:30;13.10;99.90
43987;DHT22;29650;47.378;8.300;2023-05-07T04:18:57;13.00;99.90
43987;DHT22;29650;47.378;8.300;2023-05-07T04:21:24;12.80;99.90
43987;DHT22;29650;47.378;8.300;2023-05-07T04:23:52;12.90;99.90
43987;DHT22;29650;47.378;8.300;2023-05-07T04:26:19;12.80;99.90
43987;DHT22;29650;47.378;8.300;2023-05-07T04:28:46;12.80;99.90
43987;DHT22;29650;47.378;8.300;2023-05-07T04:31:13;12.90;99.90
43987;DHT22;29650;47.378;8.300;2023-05-07T04:33:42;12.90;99.90
43987;DHT22;29650;47.378;8.300;2023-05-07T04:36:09;12.90;99.90
43987;DHT22;29650;47.378;8.300;2023-05-07T04:38:36;12.80;99.90
43987;DHT22;29650;47.378;8.300;2023-05-07T04:41:05;12.90;99.90
43987;DHT22;29650;47.378;8.300;2023-05-07T04:43:32;13.00;99.90
43987;DHT22;29650;47.378;8.300;2023-05-07T04:45:59;13.00;99.90
43987;DHT22;29650;47.378;8.300;2023-05-07T04:48:26;13.10;99.90
43987;DHT22;29650;47.378;8.300;2023-05-07T04:50:55;13.10;99.90
43987;DHT22;29650;47.378;8.300;2023-05-07T04:53:22;12.90;99.90
43987;DHT22;29650;47.378;8.300;2023-05-07T04:55:55;13.00;99.90
43987;DHT22;29650;47.378;8.300;2023-05-07T04:58:22;13.20;99.90
43987;DHT22;29650;47.378;8.300;2023-05-07T05:00:49;13.10;99.90
43987;DHT22;29650;47.378;8.300;2023-05-07T05:03:16;13.20;99.90
43987;DHT22;29650;47.378;8.300;2023-05-07T05:05:43;13.00;99.90
43987;DHT22;29650;47.378;8.300;2023-05-07T05:08:11;13.00;99.90
43987;DHT22;29650;47.378;8.300;2023-05-07T05:10:38;13.00;99.90
43987;DHT22;29650;47.378;8.300;2023-05-07T05:13:06;13.10;99.90
43987;DHT22;29650;47.378;8.300;2023-05-07T05:15:33;13.20;99.90
43987;DHT22;29650;47.378;8.300;2023-05-07T05:18:00;13.10;99.90
43987;DHT22;29650;47.378;8.300;2023-05-07T05:20:27;13.00;99.90
43987;DHT22;29650;47.378;8.300;2023-05-07T05:22:54;13.00;99.90
43987;DHT22;29650;47.378;8.300;2023-05-07T05:25:22;13.00;99.90
43987;DHT22;29650;47.378;8.300;2023-05-07T05:27:49;13.00;99.90
43987;DHT22;29650;47.378;8.300;2023-05-07T05:30:16;13.00;99.90
43987;DHT22;29650;47.378;8.300;2023-05-07T05:32:43;13.10;99.90
43987;DHT22;29650;47.378;8.300;2023-05-07T05:35:10;13.00;99.90
43987;DHT22;29650;47.378;8.300;2023-05-07T05:37:37;13.10;99.90
43987;DHT22;29650;47.378;8.300;2023-05-07T05:40:04;13.20;99.90
43987;DHT22;29650;47.378;8.300;2023-05-07T05:42:33;13.20;99.90
43987;DHT22;29650;47.378;8.300;2023-05-07T05:45:00;13.30;99.90
43987;DHT22;29650;47.378;8.300;2023-05-07T05:47:27;13.40;99.90
43987;DHT22;29650;47.378;8.300;2023-05-07T05:49:53;13.40;99.90
43987;DHT22;29650;47.378;8.300;2023-05-07T05:52:20;13.50;99.90
43987;DHT22;29650;47.378;8.300;2023-05-07T05:54:49;13.40;99.90
43987;DHT22;29650;47.378;8.300;2023-05-07T05:57:16;13.50;99.90
43987;DHT22;29650;47.378;8.300;2023-05-07T05:59:44;13.60;99.90
43987;DHT22;29650;47.378;8.300;2023-05-07T06:02:12;14.00;99.90
43987;DHT22;29650;47.378;8.300;2023-05-07T06:04:39;14.30;99.90
43987;DHT22;29650;47.378;8.300;2023-05-07T06:07:08;14.40;99.90
43987;DHT22;29650;47.378;8.300;2023-05-07T06:09:34;14.70;99.90
43987;DHT22;29650;47.378;8.300;2023-05-07T06:12:01;14.50;99.90
43987;DHT22;29650;47.378;8.300;2023-05-07T06:14:28;14.50;99.90
43987;DHT22;29650;47.378;8.300;2023-05-07T06:16:57;14.40;99.90
43987;DHT22;29650;47.378;8.300;2023-05-07T06:19:23;14.40;99.90
43987;DHT22;29650;47.378;8.300;2023-05-07T06:21:52;14.20;99.90
43987;DHT22;29650;47.378;8.300;2023-05-07T06:24:19;14.60;99.90
43987;DHT22;29650;47.378;8.300;2023-05-07T06:26:46;14.40;99.90
43987;DHT22;29650;47.378;8.300;2023-05-07T06:29:13;14.40;99.90
43987;DHT22;29650;47.378;8.300;2023-05-07T06:31:40;14.40;99.90
43987;DHT22;29650;47.378;8.300;2023-05-07T06:34:08;14.60;99.90
43987;DHT22;29650;47.378;8.300;2023-05-07T06:36:35;14.70;99.90
43987;DHT22;29650;47.378;8.300;2023-05-07T06:39:02;14.70;99.90
43987;DHT22;29650;47.378;8.300;2023-05-07T06:41:29;14.90;99.90
43987;DHT22;29650;47.378;8.300;2023-05-07T06:43:56;15.00;99.90
43987;DHT22;29650;47.378;8.300;2023-05-07T06:46:23;15.30;99.90
43987;DHT22;29650;47.378;8.300;2023-05-07T06:48:50;15.40;99.90
43987;DHT22;29650;47.378;8.300;2023-05-07T06:51:19;15.30;99.90
43987;DHT22;29650;47.378;8.300;2023-05-07T06:53:46;15.50;99.90
43987;DHT22;29650;47.378;8.300;2023-05-07T06:56:12;15.60;99.90
43987;DHT22;29650;47.378;8.300;2023-05-07T06:58:39;15.60;99.90
43987;DHT22;29650;47.378;8.300;2023-05-07T07:01:06;15.80;99.90
43987;DHT22;29650;47.378;8.300;2023-05-07T07:03:33;16.00;99.90
43987;DHT22;29650;47.378;8.300;2023-05-07T07:06:00;16.10;99.90
43987;DHT22;29650;47.378;8.300;2023-05-07T07:08:29;16.20;99.90
43987;DHT22;29650;47.378;8.300;2023-05-07T07:10:56;16.20;99.90
43987;DHT22;29650;47.378;8.300;2023-05-07T07:13:23;16.30;99.90
43987;DHT22;29650;47.378;8.300;2023-05-07T07:15:51;16.40;99.90
43987;DHT22;29650;47.378;8.300;2023-05-07T07:18:18;16.60;99.90
43987;DHT22;29650;47.378;8.300;2023-05-07T07:20:45;16.50;99.90
43987;DHT22;29650;47.378;8.300;2023-05-07T07:23:11;16.70;99.90
43987;DHT22;29650;47.378;8.300;2023-05-07T07:25:40;16.70;99.90
43987;DHT22;29650;47.378;8.300;2023-05-07T07:28:07;16.90;99.90
43987;DHT22;29650;47.378;8.300;2023-05-07T07:30:34;17.00;99.90
43987;DHT22;29650;47.378;8.300;2023-05-07T07:33:01;17.10;99.90
43987;DHT22;29650;47.378;8.300;2023-05-07T07:35:28;17.10;99.90
43987;DHT22;29650;47.378;8.300;2023-05-07T07:37:55;17.10;99.90
43987;DHT22;29650;47.378;8.300;2023-05-07T07:40:22;17.00;99.90
43987;DHT22;29650;47.378;8.300;2023-05-07T07:42:52;17.20;99.90
43987;DHT22;29650;47.378;8.300;2023-05-07T07:45:19;17.40;99.90
43987;DHT22;29650;47.378;8.300;2023-05-07T07:47:46;17.50;99.90
43987;DHT22;29650;47.378;8.300;2023-05-07T07:50:13;17.50;99.90
43987;DHT22;29650;47.378;8.300;2023-05-07T07:52:40;17.70;99.90
43987;DHT22;29650;47.378;8.300;2023-05-07T07:55:08;17.70;99.90
43987;DHT22;29650;47.378;8.300;2023-05-07T07:57:35;17.80;99.90
43987;DHT22;29650;47.378;8.300;2023-05-07T08:00:06;17.70;99.90
43987;DHT22;29650;47.378;8.300;2023-05-07T08:02:33;17.70;99.90
43987;DHT22;29650;47.378;8.300;2023-05-07T08:05:00;17.80;99.90
43987;DHT22;29650;47.378;8.300;2023-05-07T08:07:27;17.90;99.90
43987;DHT22;29650;47.378;8.300;2023-05-07T08:09:54;17.90;99.90
43987;DHT22;29650;47.378;8.300;2023-05-07T08:12:21;18.10;99.90
43987;DHT22;29650;47.378;8.300;2023-05-07T08:14:47;18.10;99.90
43987;DHT22;29650;47.378;8.300;2023-05-07T08:17:16;18.20;99.90
43987;DHT22;29650;47.378;8.300;2023-05-07T08:19:43;18.30;99.90
43987;DHT22;29650;47.378;8.300;2023-05-07T08:22:10;18.40;99.90
43987;DHT22;29650;47.378;8.300;2023-05-07T08:24:37;18.40;99.90
43987;DHT22;29650;47.378;8.300;2023-05-07T08:27:04;18.30;99.90
43987;DHT22;29650;47.378;8.300;2023-05-07T08:29:31;18.30;99.90
43987;DHT22;29650;47.378;8.300;2023-05-07T08:31:58;18.60;99.90
43987;DHT22;29650;47.378;8.300;2023-05-07T08:34:26;18.40;99.90
43987;DHT22;29650;47.378;8.300;2023-05-07T08:36:53;18.50;99.90
43987;DHT22;29650;47.378;8.300;2023-05-07T08:39:21;18.70;99.90
43987;DHT22;29650;47.378;8.300;2023-05-07T08:41:48;19.00;99.90
43987;DHT22;29650;47.378;8.300;2023-05-07T08:44:21;19.00;99.60
43987;DHT22;29650;47.378;8.300;2023-05-07T08:46:52;19.10;97.80
43987;DHT22;29650;47.378;8.300;2023-05-07T08:49:20;19.00;99.90
43987;DHT22;29650;47.378;8.300;2023-05-07T08:51:48;19.30;97.90
43987;DHT22;29650;47.378;8.300;2023-05-07T08:54:16;19.10;98.30
43987;DHT22;29650;47.378;8.300;2023-05-07T08:56:43;19.20;98.20
43987;DHT22;29650;47.378;8.300;2023-05-07T08:59:10;19.30;99.90
43987;DHT22;29650;47.378;8.300;2023-05-07T09:01:37;19.30;98.90
43987;DHT22;29650;47.378;8.300;2023-05-07T09:04:05;19.30;98.60
43987;DHT22;29650;47.378;8.300;2023-05-07T09:06:32;19.30;99.90
43987;DHT22;29650;47.378;8.300;2023-05-07T09:09:00;19.80;99.80
43987;DHT22;29650;47.378;8.300;2023-05-07T09:11:30;19.90;99.30
43987;DHT22;29650;47.378;8.300;2023-05-07T09:13:58;19.90;98.00
43987;DHT22;29650;47.378;8.300;2023-05-07T09:16:28;19.90;99.90
43987;DHT22;29650;47.378;8.300;2023-05-07T09:18:56;19.70;97.40
43987;DHT22;29650;47.378;8.300;2023-05-07T09:21:23;19.60;96.40
43987;DHT22;29650;47.378;8.300;2023-05-07T09:23:52;19.60;95.90
43987;DHT22;29650;47.378;8.300;2023-05-07T09:26:22;19.90;96.20
43987;DHT22;29650;47.378;8.300;2023-05-07T09:28:49;19.90;96.00
43987;DHT22;29650;47.378;8.300;2023-05-07T09:31:16;20.00;96.40
43987;DHT22;29650;47.378;8.300;2023-05-07T09:33:43;20.10;94.00
43987;DHT22;29650;47.378;8.300;2023-05-07T09:36:11;20.30;92.80
43987;DHT22;29650;47.378;8.300;2023-05-07T09:38:38;20.20;92.70
43987;DHT22;29650;47.378;8.300;2023-05-07T09:41:06;20.10;92.00
43987;DHT22;29650;47.378;8.300;2023-05-07T09:43:35;20.10;91.50
43987;DHT22;29650;47.378;8.300;2023-05-07T09:46:03;20.10;90.80
43987;DHT22;29650;47.378;8.300;2023-05-07T09:48:30;19.90;92.40
43987;DHT22;29650;47.378;8.300;2023-05-07T09:51:02;19.90;92.30
43987;DHT22;29650;47.378;8.300;2023-05-07T09:53:30;19.80;91.90
43987;DHT22;29650;47.378;8.300;2023-05-07T09:55:57;19.70;91.60
43987;DHT22;29650;47.378;8.300;2023-05-07T09:58:25;19.70;92.40
43987;DHT22;29650;47.378;8.300;2023-05-07T10:00:54;19.60;92.10
43987;DHT22;29650;47.378;8.300;2023-05-07T10:03:24;19.70;93.00
43987;DHT22;29650;47.378;8.300;2023-05-07T10:05:55;19.70;93.00
43987;DHT22;29650;47.378;8.300;2023-05-07T10:08:23;19.70;93.00
43987;DHT22;29650;47.378;8.300;2023-05-07T10:10:50;19.60;93.90
43987;DHT22;29650;47.378;8.300;2023-05-07T10:13:17;19.70;93.10
43987;DHT22;29650;47.378;8.300;2023-05-07T10:15:45;19.70;95.10
43987;DHT22;29650;47.378;8.300;2023-05-07T10:18:13;19.80;95.00
43987;DHT22;29650;47.378;8.300;2023-05-07T10:20:42;19.80;93.60
43987;DHT22;29650;47.378;8.300;2023-05-07T10:23:13;19.90;94.50
43987;DHT22;29650;47.378;8.300;2023-05-07T10:25:41;19.70;93.40
43987;DHT22;29650;47.378;8.300;2023-05-07T10:28:10;19.70;94.30
43987;DHT22;29650;47.378;8.300;2023-05-07T10:30:48;19.80;93.60
43987;DHT22;29650;47.378;8.300;2023-05-07T10:33:25;19.80;93.20
43987;DHT22;29650;47.378;8.300;2023-05-07T10:35:57;19.90;93.90
43987;DHT22;29650;47.378;8.300;2023-05-07T10:38:25;19.80;95.00
43987;DHT22;29650;47.378;8.300;2023-05-07T10:40:52;19.80;94.40
43987;DHT22;29650;47.378;8.300;2023-05-07T10:43:19;20.00;93.50
43987;DHT22;29650;47.378;8.300;2023-05-07T10:46:14;20.10;92.80
43987;DHT22;29650;47.378;8.300;2023-05-07T10:49:07;20.20;92.60
43987;DHT22;29650;47.378;8.300;2023-05-07T10:51:35;20.20;93.30
43987;DHT22;29650;47.378;8.300;2023-05-07T10:54:21;20.50;92.40
43987;DHT22;29650;47.378;8.300;2023-05-07T10:56:49;20.40;91.90
43987;DHT22;29650;47.378;8.300;2023-05-07T10:59:34;20.60;92.10
43987;DHT22;29650;47.378;8.300;2023-05-07T11:02:07;20.80;90.30
43987;DHT22;29650;47.378;8.300;2023-05-07T11:04:37;21.00;90.60
43987;DHT22;29650;47.378;8.300;2023-05-07T11:07:37;21.20;87.90
43987;DHT22;29650;47.378;8.300;2023-05-07T11:10:05;21.60;85.30
43987;DHT22;29650;47.378;8.300;2023-05-07T11:12:49;21.40;80.50
43987;DHT22;29650;47.378;8.300;2023-05-07T11:15:33;21.50;80.10
43987;DHT22;29650;47.378;8.300;2023-05-07T11:18:00;21.60;84.00
43987;DHT22;29650;47.378;8.300;2023-05-07T11:23:58;21.60;86.70
43987;DHT22;29650;47.378;8.300;2023-05-07T11:26:25;21.60;79.90
43987;DHT22;29650;47.378;8.300;2023-05-07T11:28:53;21.80;82.00
43987;DHT22;29650;47.378;8.300;2023-05-07T11:31:22;22.00;79.10
43987;DHT22;29650;47.378;8.300;2023-05-07T11:33:49;22.10;81.00
43987;DHT22;29650;47.378;8.300;2023-05-07T11:36:16;22.00;77.10
43987;DHT22;29650;47.378;8.300;2023-05-07T11:38:44;21.90;76.60
43987;DHT22;29650;47.378;8.300;2023-05-07T11:41:13;22.00;77.60
43987;DHT22;29650;47.378;8.300;2023-05-07T11:43:57;21.90;77.30
43987;DHT22;29650;47.378;8.300;2023-05-07T11:46:25;21.30;77.80
43987;DHT22;29650;47.378;8.300;2023-05-07T11:48:52;21.80;81.40
43987;DHT22;29650;47.378;8.300;2023-05-07T11:51:19;22.20;78.70
43987;DHT22;29650;47.378;8.300;2023-05-07T11:53:46;21.70;75.50
43987;DHT22;29650;47.378;8.300;2023-05-07T11:56:17;21.80;78.40
43987;DHT22;29650;47.378;8.300;2023-05-07T11:58:45;21.50;76.70
43987;DHT22;29650;47.378;8.300;2023-05-07T12:01:13;22.00;75.40
43987;DHT22;29650;47.378;8.300;2023-05-07T12:03:41;22.10;74.80
43987;DHT22;29650;47.378;8.300;2023-05-07T12:06:09;21.80;74.60
43987;DHT22;29650;47.378;8.300;2023-05-07T12:08:39;21.70;75.20
43987;DHT22;29650;47.378;8.300;2023-05-07T12:11:12;22.00;74.90
43987;DHT22;29650;47.378;8.300;2023-05-07T12:13:41;21.80;75.40
43987;DHT22;29650;47.378;8.300;2023-05-07T12:16:08;21.90;78.60
43987;DHT22;29650;47.378;8.300;2023-05-07T12:18:36;21.90;79.40
43987;DHT22;29650;47.378;8.300;2023-05-07T12:21:05;21.60;81.30
43987;DHT22;29650;47.378;8.300;2023-05-07T12:23:33;21.50;82.00
43987;DHT22;29650;47.378;8.300;2023-05-07T12:26:00;21.50;81.60
43987;DHT22;29650;47.378;8.300;2023-05-07T12:28:27;21.60;82.10
43987;DHT22;29650;47.378;8.300;2023-05-07T12:30:57;22.00;82.50
43987;DHT22;29650;47.378;8.300;2023-05-07T12:33:25;22.10;80.20
43987;DHT22;29650;47.378;8.300;2023-05-07T12:35:55;22.00;80.10
43987;DHT22;29650;47.378;8.300;2023-05-07T12:38:22;22.20;80.20
43987;DHT22;29650;47.378;8.300;2023-05-07T12:40:50;22.20;81.70
43987;DHT22;29650;47.378;8.300;2023-05-07T12:43:18;21.80;79.50
43987;DHT22;29650;47.378;8.300;2023-05-07T12:45:45;21.50;80.50
43987;DHT22;29650;47.378;8.300;2023-05-07T12:48:14;21.90;82.40
43987;DHT22;29650;47.378;8.300;2023-05-07T12:50:41;21.90;82.20
43987;DHT22;29650;47.378;8.300;2023-05-07T12:53:10;22.10;80.60
43987;DHT22;29650;47.378;8.300;2023-05-07T12:55:42;22.10;80.50
43987;DHT22;29650;47.378;8.300;2023-05-07T12:58:15;22.10;79.20
43987;DHT22;29650;47.378;8.300;2023-05-07T13:00:44;22.00;81.00
43987;DHT22;29650;47.378;8.300;2023-05-07T13:03:11;21.50;76.80
43987;DHT22;29650;47.378;8.300;2023-05-07T13:05:39;21.50;82.70
43987;DHT22;29650;47.378;8.300;2023-05-07T13:08:06;21.40;81.20
43987;DHT22;29650;47.378;8.300;2023-05-07T13:10:35;21.30;78.70
43987;DHT22;29650;47.378;8.300;2023-05-07T13:13:02;21.00;80.50
43987;DHT22;29650;47.378;8.300;2023-05-07T13:15:29;21.20;82.70
43987;DHT22;29650;47.378;8.300;2023-05-07T13:17:56;20.70;81.50
43987;DHT22;29650;47.378;8.300;2023-05-07T13:20:23;20.40;83.30
43987;DHT22;29650;47.378;8.300;2023-05-07T13:22:51;20.40;83.30
43987;DHT22;29650;47.378;8.300;2023-05-07T13:25:18;20.20;80.90
43987;DHT22;29650;47.378;8.300;2023-05-07T13:27:45;20.40;81.40
43987;DHT22;29650;47.378;8.300;2023-05-07T13:30:12;20.60;82.60
43987;DHT22;29650;47.378;8.300;2023-05-07T13:32:39;20.60;85.40
43987;DHT22;29650;47.378;8.300;2023-05-07T13:35:07;20.60;82.60
43987;DHT22;29650;47.378;8.300;2023-05-07T13:37:34;20.70;82.40
43987;DHT22;29650;47.378;8.300;2023-05-07T13:40:02;20.30;80.70
43987;DHT22;29650;47.378;8.300;2023-05-07T13:42:30;20.20;83.00
43987;DHT22;29650;47.378;8.300;2023-05-07T13:44:57;20.30;79.50
43987;DHT22;29650;47.378;8.300;2023-05-07T13:47:24;20.20;75.70
43987;DHT22;29650;47.378;8.300;2023-05-07T13:49:51;20.90;80.40
43987;DHT22;29650;47.378;8.300;2023-05-07T13:52:18;20.40;80.20
43987;DHT22;29650;47.378;8.300;2023-05-07T13:54:45;20.30;83.90
43987;DHT22;29650;47.378;8.300;2023-05-07T13:57:13;19.70;86.20
43987;DHT22;29650;47.378;8.300;2023-05-07T13:59:41;19.70;87.00
43987;DHT22;29650;47.378;8.300;2023-05-07T14:02:08;19.50;90.50
43987;DHT22;29650;47.378;8.300;2023-05-07T14:04:35;19.80;91.10
43987;DHT22;29650;47.378;8.300;2023-05-07T14:07:01;19.70;91.30
43987;DHT22;29650;47.378;8.300;2023-05-07T14:09:28;19.60;93.10
43987;DHT22;29650;47.378;8.300;2023-05-07T14:11:55;19.50;93.10
43987;DHT22;29650;47.378;8.300;2023-05-07T14:14:24;19.40;93.90
43987;DHT22;29650;47.378;8.300;2023-05-07T14:16:51;19.30;95.00
43987;DHT22;29650;47.378;8.300;2023-05-07T14:19:17;19.40;95.50
43987;DHT22;29650;47.378;8.300;2023-05-07T14:21:44;19.30;95.60
43987;DHT22;29650;47.378;8.300;2023-05-07T14:24:11;19.40;96.30
43987;DHT22;29650;47.378;8.300;2023-05-07T14:26:38;19.40;95.40
43987;DHT22;29650;47.378;8.300;2023-05-07T14:29:05;19.40;94.80
43987;DHT22;29650;47.378;8.300;2023-05-07T14:31:33;19.10;95.50
43987;DHT22;29650;47.378;8.300;2023-05-07T14:34:00;19.20;95.80
43987;DHT22;29650;47.378;8.300;2023-05-07T14:36:28;19.10;97.00
43987;DHT22;29650;47.378;8.300;2023-05-07T14:38:56;19.10;95.50
43987;DHT22;29650;47.378;8.300;2023-05-07T14:41:24;19.10;94.90
43987;DHT22;29650;47.378;8.300;2023-05-07T14:43:51;18.40;94.10
43987;DHT22;29650;47.378;8.300;2023-05-07T14:46:18;19.10;93.60
43987;DHT22;29650;47.378;8.300;2023-05-07T14:48:47;19.00;92.80
43987;DHT22;29650;47.378;8.300;2023-05-07T14:51:14;19.00;93.70
43987;DHT22;29650;47.378;8.300;2023-05-07T14:53:41;18.80;92.90
43987;DHT22;29650;47.378;8.300;2023-05-07T14:56:08;18.50;93.70
43987;DHT22;29650;47.378;8.300;2023-05-07T14:58:35;18.70;94.70
43987;DHT22;29650;47.378;8.300;2023-05-07T15:01:03;18.80;94.30
43987;DHT22;29650;47.378;8.300;2023-05-07T15:03:30;19.00;94.30
43987;DHT22;29650;47.378;8.300;2023-05-07T15:05:58;18.90;93.20
43987;DHT22;29650;47.378;8.300;2023-05-07T15:08:25;19.10;94.10
43987;DHT22;29650;47.378;8.300;2023-05-07T15:10:52;19.00;94.30
43987;DHT22;29650;47.378;8.300;2023-05-07T15:13:20;19.00;94.00
43987;DHT22;29650;47.378;8.300;2023-05-07T15:15:47;19.10;94.40
43987;DHT22;29650;47.378;8.300;2023-05-07T15:18:15;18.90;93.90
43987;DHT22;29650;47.378;8.300;2023-05-07T15:20:42;18.80;93.40
43987;DHT22;29650;47.378;8.300;2023-05-07T15:23:10;18.50;94.10
43987;DHT22;29650;47.378;8.300;2023-05-07T15:25:39;18.60;93.70
43987;DHT22;29650;47.378;8.300;2023-05-07T15:28:06;18.60;93.80
43987;DHT22;29650;47.378;8.300;2023-05-07T15:30:33;18.50;93.50
43987;DHT22;29650;47.378;8.300;2023-05-07T15:33:01;18.50;94.40
43987;DHT22;29650;47.378;8.300;2023-05-07T15:35:28;18.40;94.10
43987;DHT22;29650;47.378;8.300;2023-05-07T15:37:55;18.70;95.10